createdAt,value
2022-10-22T00:01:23.005Z,82.50
2022-10-22T00:11:18.539Z,82.60
2022-10-22T00:16:22.058Z,82.70
2022-10-22T00:26:15.639Z,93.60
2022-10-22T00:28:43.775Z,92.40
2022-10-22T00:33:41.725Z,83.10
2022-10-22T00:36:10.322Z,83.20
2022-10-22T00:43:54.056Z,83.40
2022-10-22T00:46:22.210Z,93.70
2022-10-22T00:48:52.319Z,83.40
2022-10-22T00:51:22.842Z,83.50
2022-10-22T00:53:56.119Z,83.50
2022-10-22T00:56:24.791Z,83.50
2022-10-22T00:58:56.918Z,84.50
2022-10-22T01:01:27.664Z,94.00
2022-10-22T01:03:57.477Z,83.70
2022-10-22T01:06:27.820Z,83.90
2022-10-22T01:09:07.571Z,95.40
2022-10-22T01:11:46.494Z,84.10
2022-10-22T01:14:22.861Z,84.00
2022-10-22T01:16:56.185Z,84.10
2022-10-22T01:19:41.078Z,93.60
2022-10-22T01:22:18.488Z,93.70
2022-10-22T01:24:56.846Z,95.30
2022-10-22T01:27:34.216Z,84.00
2022-10-22T01:30:06.914Z,84.00
2022-10-22T01:32:41.009Z,84.00
2022-10-22T01:35:13.505Z,95.20
2022-10-22T01:37:47.105Z,83.90
2022-10-22T01:40:17.650Z,93.70
2022-10-22T01:42:56.459Z,84.00
2022-10-22T01:45:26.629Z,93.70
2022-10-22T01:48:05.797Z,84.30
2022-10-22T01:51:05.475Z,84.50
2022-10-22T01:53:41.998Z,84.50
2022-10-22T01:56:29.898Z,84.60
2022-10-22T01:59:09.335Z,84.50
2022-10-22T02:01:44.916Z,84.50
2022-10-22T02:04:18.273Z,84.40
2022-10-22T02:06:49.350Z,84.60
2022-10-22T02:09:19.601Z,84.40
2022-10-22T02:11:48.841Z,84.40
2022-10-22T02:14:18.888Z,84.00
2022-10-22T02:16:50.407Z,83.40
2022-10-22T02:19:24.399Z,83.10
2022-10-22T02:21:53.854Z,83.00
2022-10-22T02:24:23.679Z,82.80
2022-10-22T02:27:00.180Z,82.30
2022-10-22T02:29:31.570Z,82.30
2022-10-22T02:32:04.195Z,82.50
2022-10-22T02:34:33.734Z,82.30
2022-10-22T02:37:04.302Z,92.70
2022-10-22T02:39:33.585Z,81.60
2022-10-22T02:42:02.909Z,94.00
2022-10-22T02:44:31.078Z,92.90
2022-10-22T02:47:01.217Z,92.70
2022-10-22T02:51:58.635Z,92.50
2022-10-22T03:04:22.028Z,82.50
2022-10-22T03:06:50.340Z,93.80
2022-10-22T03:21:51.406Z,82.50
2022-10-22T03:24:22.596Z,93.40
2022-10-22T03:26:52.939Z,82.20
2022-10-22T03:29:24.584Z,93.20
2022-10-22T03:31:53.818Z,82.30
2022-10-22T03:36:53.226Z,82.10
2022-10-22T03:39:23.398Z,82.20
2022-10-22T03:41:52.392Z,92.90
2022-10-22T03:44:24.650Z,94.60
2022-10-22T03:54:19.797Z,81.90
2022-10-22T04:09:10.734Z,93.30
2022-10-22T04:11:40.312Z,81.80
2022-10-22T04:29:01.103Z,93.30
2022-10-22T04:33:59.118Z,81.70
2022-10-22T04:36:27.735Z,93.00
2022-10-22T04:38:58.361Z,81.50
2022-10-22T04:41:28.839Z,81.50
2022-10-22T04:43:58.194Z,81.50
2022-10-22T04:46:32.542Z,81.40
2022-10-22T04:56:28.407Z,81.60
2022-10-22T04:58:58.179Z,92.80
2022-10-22T05:01:28.188Z,94.00
2022-10-22T05:03:59.427Z,81.10
2022-10-22T05:06:29.188Z,80.90
2022-10-22T05:08:59.094Z,80.80
2022-10-22T05:11:29.325Z,80.80
2022-10-22T05:16:27.145Z,80.80
2022-10-22T05:21:25.262Z,80.40
2022-10-22T05:26:27.375Z,80.30
2022-10-22T05:36:22.853Z,79.50
2022-10-22T05:38:52.975Z,79.50
2022-10-22T05:41:22.987Z,79.40
2022-10-22T05:43:52.218Z,79.30
2022-10-22T05:46:23.249Z,79.50
2022-10-22T05:53:55.008Z,79.70
2022-10-22T05:56:24.058Z,79.90
2022-10-22T06:01:23.080Z,79.60
2022-10-22T06:06:22.989Z,79.60
2022-10-22T06:08:53.437Z,80.10
2022-10-22T06:11:24.912Z,80.10
2022-10-22T06:23:47.141Z,92.20
2022-10-22T06:28:47.315Z,92.20
2022-10-22T06:31:15.851Z,93.40
2022-10-22T06:36:14.400Z,79.50
2022-10-22T06:38:42.712Z,92.60
2022-10-22T06:41:12.774Z,91.70
2022-10-22T06:43:40.943Z,91.80
2022-10-22T06:46:14.662Z,79.00
2022-10-22T06:48:51.639Z,91.90
2022-10-22T06:51:21.063Z,78.90
2022-10-22T06:53:49.684Z,91.20
2022-10-22T06:56:20.078Z,78.70
2022-10-22T06:58:48.801Z,89.40
2022-10-22T07:01:20.562Z,78.90
2022-10-22T07:06:17.157Z,91.40
2022-10-22T07:08:45.425Z,93.00
2022-10-22T07:11:16.321Z,78.80
2022-10-22T07:18:46.195Z,78.50
2022-10-22T07:21:16.928Z,78.80
2022-10-22T07:26:23.228Z,78.80
2022-10-22T07:28:53.692Z,78.60
2022-10-22T07:33:55.360Z,78.20
2022-10-22T07:38:56.219Z,77.50
2022-10-22T07:46:24.115Z,79.10
2022-10-22T07:51:26.098Z,78.70
2022-10-22T07:58:53.542Z,77.90
2022-10-22T08:01:28.450Z,79.30
2022-10-22T08:03:58.716Z,78.40
2022-10-22T08:06:28.458Z,77.60
2022-10-22T08:16:25.906Z,78.90
2022-10-22T08:23:54.896Z,78.00
2022-10-22T08:29:01.023Z,80.50
2022-10-22T08:31:41.852Z,90.90
2022-10-22T08:46:29.081Z,78.20
2022-10-22T08:49:01.597Z,78.00
2022-10-22T08:51:34.046Z,77.50
2022-10-22T08:54:37.180Z,77.80
2022-10-22T08:57:34.001Z,77.80
2022-10-22T09:00:06.346Z,77.90
2022-10-22T09:02:45.856Z,77.90
2022-10-22T09:14:37.580Z,77.90
2022-10-22T09:34:38.452Z,78.70
2022-10-22T09:37:09.918Z,83.00
2022-10-22T09:39:43.202Z,78.60
2022-10-22T09:42:27.639Z,78.40
2022-10-22T09:44:58.559Z,78.40
2022-10-22T09:47:43.363Z,78.20
2022-10-22T09:50:31.153Z,77.90
2022-10-22T09:53:02.643Z,77.90
2022-10-22T09:58:02.195Z,77.50
2022-10-22T10:00:33.880Z,77.20
2022-10-22T10:05:37.710Z,77.00
2022-10-22T10:08:15.104Z,90.20
2022-10-22T10:10:47.793Z,90.50
2022-10-22T10:13:32.313Z,75.70
2022-10-22T10:16:08.666Z,76.10
2022-10-22T10:18:57.879Z,76.10
2022-10-22T10:21:36.085Z,76.10
2022-10-22T10:24:16.948Z,75.60
2022-10-22T10:26:51.505Z,75.80
2022-10-22T10:29:31.706Z,75.90
2022-10-22T10:32:36.118Z,76.00
2022-10-22T10:35:42.456Z,90.20
2022-10-22T10:38:40.706Z,75.90
2022-10-22T10:41:24.826Z,75.80
2022-10-22T10:44:19.873Z,75.40
2022-10-22T10:46:59.626Z,91.10
2022-10-22T10:49:31.205Z,75.10
2022-10-22T10:52:07.851Z,89.80
2022-10-22T10:54:48.494Z,75.50
2022-10-22T10:57:26.092Z,75.40
2022-10-22T11:00:11.658Z,75.40
2022-10-22T11:03:23.574Z,75.40
2022-10-22T11:05:55.585Z,75.40
2022-10-22T11:08:27.792Z,75.50
2022-10-22T11:11:01.209Z,75.60
2022-10-22T11:13:34.566Z,75.70
2022-10-22T11:16:08.562Z,88.90
2022-10-22T11:18:42.387Z,89.00
2022-10-22T11:21:18.460Z,75.80
2022-10-22T11:23:55.277Z,75.80
2022-10-22T11:26:37.170Z,75.30
2022-10-22T11:29:08.711Z,75.20
2022-10-22T11:31:50.502Z,75.90
2022-10-22T11:34:33.718Z,74.90
2022-10-22T11:37:03.986Z,74.50
2022-10-22T11:40:05.037Z,72.40
2022-10-22T11:43:30.581Z,71.10
2022-10-22T11:46:31.255Z,70.50
2022-10-22T11:49:06.642Z,68.70
2022-10-22T11:51:36.587Z,67.80
2022-10-22T11:54:31.849Z,80.00
2022-10-22T11:57:18.943Z,70.70
2022-10-22T11:59:52.464Z,72.00
2022-10-22T12:02:44.326Z,71.40
2022-10-22T12:05:45.894Z,71.00
2022-10-22T12:08:29.263Z,68.30
2022-10-22T12:11:05.242Z,58.30
2022-10-22T12:13:35.597Z,69.20
2022-10-22T12:16:05.389Z,68.60
2022-10-22T12:18:43.675Z,68.80
2022-10-22T12:21:13.941Z,65.40
2022-10-22T12:23:43.158Z,65.40
2022-10-22T12:29:00.640Z,67.50
2022-10-22T12:31:38.549Z,55.80
2022-10-22T12:34:16.209Z,65.00
2022-10-22T12:36:44.819Z,64.30
2022-10-22T12:39:17.767Z,66.30
2022-10-22T12:41:46.348Z,65.90
2022-10-22T12:44:15.870Z,65.90
2022-10-22T12:47:10.802Z,65.80
2022-10-22T12:49:46.579Z,66.90
2022-10-22T12:52:44.240Z,67.10
2022-10-22T12:55:32.373Z,68.40
2022-10-22T12:58:00.656Z,67.10
2022-10-22T13:00:34.324Z,68.70
2022-10-22T13:03:08.107Z,68.40
2022-10-22T13:05:40.744Z,70.60
2022-10-22T13:08:12.194Z,63.50
2022-10-22T13:10:42.226Z,66.70
2022-10-22T13:13:32.924Z,63.70
2022-10-22T13:16:20.144Z,53.50
2022-10-22T13:18:49.744Z,65.70
2022-10-22T13:21:29.725Z,65.60
2022-10-22T13:24:00.436Z,64.00
2022-10-22T13:26:34.969Z,52.70
2022-10-22T13:29:06.289Z,64.20
2022-10-22T13:31:37.451Z,64.40
2022-10-22T13:34:11.770Z,52.20
2022-10-22T13:36:43.820Z,65.30
2022-10-22T13:39:18.343Z,52.50
2022-10-22T13:41:50.585Z,65.70
2022-10-22T13:46:49.523Z,64.50
2022-10-22T13:49:22.738Z,53.30
2022-10-22T13:51:53.053Z,65.10
2022-10-22T13:54:23.901Z,64.40
2022-10-22T13:56:52.887Z,65.00
2022-10-22T13:59:22.994Z,64.50
2022-10-22T14:01:53.264Z,65.50
2022-10-22T14:04:21.633Z,63.80
2022-10-22T14:06:50.093Z,65.50
2022-10-22T14:09:20.766Z,64.70
2022-10-22T14:11:50.114Z,64.10
2022-10-22T14:19:26.086Z,64.60
2022-10-22T14:21:54.402Z,64.50
2022-10-22T14:24:29.961Z,52.10
2022-10-22T14:26:58.485Z,64.30
2022-10-22T14:41:52.277Z,52.40
2022-10-22T14:44:28.256Z,65.20
2022-10-22T14:46:57.250Z,65.30
2022-10-22T14:54:22.949Z,66.40
2022-10-22T14:56:57.293Z,66.30
2022-10-22T15:02:41.801Z,66.20
2022-10-22T15:07:52.278Z,52.90
2022-10-22T15:12:51.997Z,52.40
2022-10-22T15:20:30.572Z,52.80
2022-10-22T15:28:09.421Z,54.00
2022-10-22T15:30:47.312Z,54.20
2022-10-22T15:33:23.810Z,55.40
2022-10-22T15:38:22.728Z,54.60
2022-10-22T15:43:22.637Z,67.60
2022-10-22T15:46:12.929Z,55.60
2022-10-22T15:51:30.674Z,55.50
2022-10-22T15:54:10.131Z,56.60
2022-10-22T15:59:15.674Z,56.30
2022-10-22T16:04:20.265Z,56.90
2022-10-22T16:06:53.819Z,57.60
2022-10-22T16:09:24.867Z,56.70
2022-10-22T16:11:58.081Z,56.80
2022-10-22T16:14:29.415Z,56.90
2022-10-22T16:16:59.800Z,57.40
2022-10-22T16:22:01.713Z,58.20
2022-10-22T16:29:30.337Z,58.70
2022-10-22T16:39:33.557Z,72.90
2022-10-22T16:42:02.340Z,73.30
2022-10-22T16:44:32.162Z,59.50
2022-10-22T16:49:31.019Z,60.80
2022-10-22T16:51:59.799Z,74.40
2022-10-22T16:54:28.445Z,73.70
2022-10-22T17:01:55.719Z,61.60
2022-10-22T17:11:50.270Z,79.40
2022-10-22T17:16:53.786Z,76.30
2022-10-22T17:19:25.074Z,63.50
2022-10-22T17:24:23.066Z,65.50
2022-10-22T17:36:49.129Z,64.40
2022-10-22T17:39:19.692Z,64.80
2022-10-22T17:44:17.421Z,64.80
2022-10-22T17:49:18.593Z,79.60
2022-10-22T17:51:49.105Z,78.60
2022-10-22T17:59:16.118Z,65.30
2022-10-22T18:04:17.899Z,79.20
2022-10-22T18:06:47.734Z,79.80
2022-10-22T18:09:19.549Z,79.40
2022-10-22T18:11:49.523Z,65.90
2022-10-22T18:14:19.133Z,66.00
2022-10-22T18:19:18.717Z,66.00
2022-10-22T18:24:19.068Z,66.10
2022-10-22T18:26:47.953Z,80.80
2022-10-22T18:29:18.299Z,66.10
2022-10-22T18:31:47.774Z,66.40
2022-10-22T18:39:20.382Z,84.10
2022-10-22T18:44:17.976Z,67.10
2022-10-22T18:46:48.877Z,80.80
2022-10-22T18:49:19.953Z,67.20
2022-10-22T18:51:52.803Z,82.60
2022-10-22T18:54:24.439Z,67.20
2022-10-22T18:56:59.349Z,67.40
2022-10-22T18:59:30.494Z,81.60
2022-10-22T19:04:33.332Z,68.10
2022-10-22T19:09:31.579Z,68.00
2022-10-22T19:12:00.564Z,82.90
2022-10-22T19:14:28.797Z,82.10
2022-10-22T19:24:24.727Z,82.60
2022-10-22T19:26:54.406Z,68.50
2022-10-22T19:29:23.168Z,68.50
2022-10-22T19:44:19.806Z,68.80
2022-10-22T19:49:19.105Z,83.40
2022-10-22T19:56:49.645Z,69.30
2022-10-22T19:59:20.703Z,69.60
2022-10-22T20:04:18.983Z,69.40
2022-10-22T20:06:47.592Z,69.20
2022-10-22T20:11:45.010Z,69.20
2022-10-22T20:14:16.284Z,69.40
2022-10-22T20:16:49.245Z,69.40
2022-10-22T20:21:48.496Z,69.40
2022-10-22T20:26:46.890Z,70.00
2022-10-22T20:29:16.371Z,70.40
2022-10-22T20:31:46.808Z,70.40
2022-10-22T20:34:42.501Z,70.50
2022-10-22T20:39:41.305Z,70.60
2022-10-22T20:42:16.370Z,70.50
2022-10-22T20:47:24.755Z,69.90
2022-10-22T20:52:27.082Z,85.10
2022-10-22T21:02:26.548Z,70.50
2022-10-22T21:19:47.086Z,70.90
2022-10-22T21:22:21.449Z,70.90
2022-10-22T21:29:52.469Z,86.40
2022-10-22T21:34:55.052Z,86.20
2022-10-22T21:37:47.175Z,71.00
2022-10-22T21:45:58.273Z,71.30
2022-10-22T21:50:59.671Z,71.20
2022-10-22T21:55:59.664Z,86.10
2022-10-22T21:58:38.381Z,71.20
2022-10-22T22:04:19.482Z,71.10
2022-10-22T22:06:51.896Z,71.10
2022-10-22T22:09:26.750Z,71.70
2022-10-22T22:12:21.262Z,71.30
2022-10-22T22:20:56.151Z,71.10
2022-10-22T22:23:25.834Z,71.10
2022-10-22T22:36:23.516Z,71.20
2022-10-22T22:38:55.381Z,71.20
2022-10-22T22:51:28.944Z,86.00
2022-10-22T22:54:29.550Z,71.70
2022-10-22T22:56:57.898Z,87.30
2022-10-22T23:04:31.599Z,87.90
2022-10-22T23:09:29.744Z,72.20
2022-10-22T23:11:58.282Z,72.20
2022-10-22T23:19:24.491Z,71.60
2022-10-22T23:21:54.610Z,71.70
2022-10-22T23:24:26.869Z,71.90
2022-10-22T23:26:57.902Z,72.40
2022-10-22T23:29:27.722Z,72.30
2022-10-22T23:34:26.822Z,72.50
2022-10-22T23:36:59.745Z,72.60
2022-10-22T23:39:29.553Z,87.60
2022-10-22T23:41:59.499Z,72.50
2022-10-22T23:44:27.623Z,90.20
2022-10-22T23:49:24.299Z,90.20
2022-10-22T23:56:49.578Z,87.90
2022-10-22T23:59:19.102Z,72.00
